createdAt,value
2018-09-27T00:02:06.585Z,99.90
2018-09-27T00:04:35.861Z,99.90
2018-09-27T00:07:05.082Z,99.90
2018-09-27T00:09:34.698Z,99.90
2018-09-27T00:12:03.832Z,99.90
2018-09-27T00:14:33.021Z,99.90
2018-09-27T00:21:56.132Z,99.90
2018-09-27T00:24:24.760Z,99.90
2018-09-27T00:26:53.684Z,99.90
2018-09-27T00:29:23.294Z,99.90
2018-09-27T00:31:52.624Z,99.90
2018-09-27T00:34:21.664Z,99.90
2018-09-27T00:36:50.967Z,99.90
2018-09-27T00:39:20.652Z,99.90
2018-09-27T00:41:50.085Z,99.90
2018-09-27T00:44:20.790Z,99.90
2018-09-27T00:46:50.448Z,99.90
2018-09-27T00:49:19.964Z,99.90
2018-09-27T00:51:49.483Z,99.90
2018-09-27T00:54:18.799Z,99.90
2018-09-27T00:56:47.939Z,99.90
2018-09-27T00:59:17.365Z,99.90
2018-09-27T01:01:46.715Z,99.90
2018-09-27T01:04:16.050Z,99.90
2018-09-27T01:06:45.551Z,99.90
2018-09-27T01:09:14.956Z,99.90
2018-09-27T01:11:44.180Z,99.90
2018-09-27T01:14:13.664Z,99.90
2018-09-27T01:16:42.910Z,99.90
2018-09-27T01:19:12.514Z,99.90
2018-09-27T01:21:42.188Z,99.90
2018-09-27T01:24:11.438Z,99.90
2018-09-27T01:26:40.575Z,99.90
2018-09-27T01:29:09.833Z,99.90
2018-09-27T01:31:39.264Z,99.90
2018-09-27T01:34:08.598Z,99.90
2018-09-27T01:36:37.953Z,99.90
2018-09-27T01:39:08.125Z,99.90
2018-09-27T01:41:37.116Z,99.90
2018-09-27T01:44:06.544Z,99.90
2018-09-27T01:46:35.912Z,99.90
2018-09-27T01:49:05.299Z,99.90
2018-09-27T01:51:34.589Z,99.90
2018-09-27T01:54:04.178Z,99.90
2018-09-27T01:56:33.885Z,99.90
2018-09-27T01:59:03.223Z,99.90
2018-09-27T02:01:32.620Z,99.90
2018-09-27T02:04:02.023Z,99.90
2018-09-27T02:06:31.411Z,99.90
2018-09-27T02:09:00.696Z,99.90
2018-09-27T02:11:29.967Z,99.90
2018-09-27T02:13:59.752Z,99.90
2018-09-27T02:16:29.429Z,99.90
2018-09-27T02:18:58.805Z,99.90
2018-09-27T02:21:33.983Z,99.90
2018-09-27T02:24:03.370Z,99.90
2018-09-27T02:26:33.391Z,99.90
2018-09-27T02:29:02.995Z,99.90
2018-09-27T02:31:32.509Z,99.90
2018-09-27T02:34:01.846Z,99.90
2018-09-27T02:36:31.261Z,99.90
2018-09-27T02:39:00.963Z,99.90
2018-09-27T02:41:30.417Z,99.90
2018-09-27T02:43:59.729Z,99.90
2018-09-27T02:46:29.117Z,99.90
2018-09-27T02:48:58.364Z,99.90
2018-09-27T02:51:28.085Z,99.90
2018-09-27T02:53:57.610Z,99.90
2018-09-27T02:56:27.063Z,99.90
2018-09-27T02:58:56.380Z,99.90
2018-09-27T03:01:25.791Z,99.90
2018-09-27T03:03:55.127Z,99.90
2018-09-27T03:06:24.333Z,99.90
2018-09-27T03:08:53.737Z,99.90
2018-09-27T03:11:22.962Z,99.90
2018-09-27T03:13:52.248Z,99.90
2018-09-27T03:16:21.760Z,99.90
2018-09-27T03:18:50.843Z,99.90
2018-09-27T03:21:20.271Z,99.90
2018-09-27T03:23:49.549Z,99.90
2018-09-27T03:26:19.263Z,99.90
2018-09-27T03:28:48.413Z,99.90
2018-09-27T03:31:18.080Z,99.90
2018-09-27T03:33:47.277Z,99.90
2018-09-27T03:36:16.476Z,99.90
2018-09-27T03:38:45.819Z,99.90
2018-09-27T03:41:15.384Z,99.90
2018-09-27T03:43:44.760Z,99.90
2018-09-27T03:46:14.128Z,99.90
2018-09-27T03:48:43.594Z,99.90
2018-09-27T03:51:13.020Z,99.90
2018-09-27T03:53:42.448Z,99.90
2018-09-27T03:56:11.751Z,99.90
2018-09-27T03:58:41.231Z,99.90
2018-09-27T04:01:10.901Z,99.90
2018-09-27T04:03:40.537Z,99.90
2018-09-27T04:06:09.819Z,99.90
2018-09-27T04:08:39.435Z,99.90
2018-09-27T04:11:09.292Z,99.90
2018-09-27T04:13:38.685Z,99.90
2018-09-27T04:16:07.955Z,99.90
2018-09-27T04:18:37.143Z,99.90
2018-09-27T04:21:06.707Z,99.90
2018-09-27T04:23:36.302Z,99.90
2018-09-27T04:26:05.561Z,99.90
2018-09-27T04:28:35.046Z,99.90
2018-09-27T04:31:04.402Z,99.90
2018-09-27T04:33:33.851Z,99.90
2018-09-27T04:36:03.198Z,99.90
2018-09-27T04:38:32.399Z,99.90
2018-09-27T04:41:01.837Z,99.90
2018-09-27T04:43:31.151Z,99.90
2018-09-27T04:46:00.462Z,99.90
2018-09-27T04:48:29.773Z,99.90
2018-09-27T04:50:59.103Z,99.90
2018-09-27T04:53:28.550Z,99.90
2018-09-27T04:55:58.011Z,99.90
2018-09-27T04:58:27.324Z,99.90
2018-09-27T05:00:56.647Z,99.90
2018-09-27T05:03:25.967Z,99.90
2018-09-27T05:05:55.169Z,99.90
2018-09-27T05:08:32.144Z,99.90
2018-09-27T05:11:01.604Z,99.90
2018-09-27T05:13:53.487Z,99.90
2018-09-27T05:16:22.867Z,99.90
2018-09-27T05:19:08.515Z,99.90
2018-09-27T05:21:39.355Z,99.90
2018-09-27T05:24:09.916Z,99.90
2018-09-27T05:26:39.135Z,99.90
2018-09-27T05:29:08.229Z,99.90
2018-09-27T05:31:37.500Z,99.90
2018-09-27T05:34:07.686Z,99.90
2018-09-27T05:36:37.232Z,99.90
2018-09-27T05:39:07.896Z,99.90
2018-09-27T05:41:37.582Z,99.90
2018-09-27T05:44:07.036Z,99.90
2018-09-27T05:46:36.481Z,99.90
2018-09-27T05:49:05.648Z,99.90
2018-09-27T05:51:35.142Z,99.90
2018-09-27T05:54:11.698Z,99.90
2018-09-27T05:56:41.061Z,99.90
2018-09-27T05:59:11.164Z,99.90
2018-09-27T06:01:40.573Z,99.90
2018-09-27T06:04:09.612Z,99.90
2018-09-27T06:06:45.296Z,99.90
2018-09-27T06:09:14.568Z,99.90
2018-09-27T06:11:44.552Z,99.90
2018-09-27T06:14:13.686Z,99.90
2018-09-27T06:16:42.902Z,99.90
2018-09-27T06:19:12.241Z,99.90
2018-09-27T06:21:57.646Z,99.90
2018-09-27T06:24:32.074Z,99.90
2018-09-27T06:27:01.326Z,99.90
2018-09-27T06:29:30.920Z,99.90
2018-09-27T06:32:00.968Z,99.90
2018-09-27T06:34:30.324Z,99.90
2018-09-27T06:36:59.738Z,99.90
2018-09-27T06:39:29.298Z,99.90
2018-09-27T06:42:04.084Z,99.90
2018-09-27T06:44:33.389Z,99.90
2018-09-27T06:47:02.769Z,99.90
2018-09-27T06:49:32.268Z,99.90
2018-09-27T06:52:01.524Z,99.90
2018-09-27T06:54:30.958Z,99.90
2018-09-27T06:57:00.466Z,99.90
2018-09-27T06:59:29.960Z,99.90
2018-09-27T07:01:59.200Z,99.90
2018-09-27T07:04:28.162Z,99.90
2018-09-27T07:06:57.402Z,99.90
2018-09-27T07:09:27.682Z,99.90
2018-09-27T07:11:57.294Z,99.90
2018-09-27T07:14:26.562Z,99.90
2018-09-27T07:16:55.900Z,99.90
2018-09-27T07:19:25.196Z,99.90
2018-09-27T07:21:56.640Z,99.90
2018-09-27T07:24:25.795Z,99.90
2018-09-27T07:26:55.143Z,99.90
2018-09-27T07:29:33.482Z,99.90
2018-09-27T07:32:02.776Z,99.90
2018-09-27T07:34:31.884Z,99.90
2018-09-27T07:37:01.276Z,99.90
2018-09-27T07:39:30.644Z,99.90
2018-09-27T07:41:59.874Z,99.90
2018-09-27T07:44:29.170Z,99.90
2018-09-27T07:46:58.702Z,99.90
2018-09-27T07:49:28.204Z,99.90
2018-09-27T07:51:57.796Z,99.90
2018-09-27T07:54:27.164Z,99.90
2018-09-27T07:56:56.464Z,99.90
2018-09-27T07:59:25.870Z,99.90
2018-09-27T08:01:55.146Z,99.90
2018-09-27T08:04:24.850Z,99.90
2018-09-27T08:06:54.397Z,99.90
2018-09-27T08:09:23.785Z,99.90
2018-09-27T08:11:53.164Z,99.90
2018-09-27T08:14:22.343Z,99.90
2018-09-27T08:16:51.644Z,99.90
2018-09-27T08:19:20.864Z,99.90
2018-09-27T08:21:50.594Z,99.90
2018-09-27T08:24:20.297Z,99.90
2018-09-27T08:26:49.937Z,99.90
2018-09-27T08:29:19.828Z,99.90
2018-09-27T08:31:49.313Z,99.90
2018-09-27T08:34:18.631Z,99.90
2018-09-27T08:36:48.366Z,99.90
2018-09-27T08:39:17.929Z,99.90
2018-09-27T08:41:47.467Z,99.90
2018-09-27T08:44:17.067Z,99.90
2018-09-27T08:46:46.362Z,99.90
2018-09-27T08:49:15.619Z,99.90
2018-09-27T08:51:44.983Z,99.90
2018-09-27T08:54:14.367Z,99.90
2018-09-27T08:56:43.677Z,99.90
2018-09-27T08:59:13.099Z,99.90
2018-09-27T09:01:42.559Z,99.90
2018-09-27T09:04:12.395Z,99.90
2018-09-27T09:06:41.799Z,99.90
2018-09-27T09:09:12.912Z,99.90
2018-09-27T09:11:42.348Z,99.90
2018-09-27T09:14:12.365Z,99.90
2018-09-27T09:16:41.871Z,99.90
2018-09-27T09:19:11.146Z,99.90
2018-09-27T09:21:40.491Z,99.90
2018-09-27T09:24:09.674Z,99.90
2018-09-27T09:26:39.117Z,99.90
2018-09-27T09:29:08.323Z,99.10
2018-09-27T09:31:37.663Z,97.80
2018-09-27T09:34:06.919Z,97.30
2018-09-27T09:36:36.361Z,96.10
2018-09-27T09:39:07.607Z,94.90
2018-09-27T09:41:37.178Z,95.10
2018-09-27T09:44:06.659Z,96.40
2018-09-27T09:46:36.233Z,93.50
2018-09-27T09:49:05.785Z,92.20
2018-09-27T09:51:34.911Z,89.40
2018-09-27T09:54:04.394Z,87.30
2018-09-27T09:56:34.087Z,85.30
2018-09-27T09:59:03.496Z,83.50
2018-09-27T10:01:33.091Z,88.60
2018-09-27T10:04:02.587Z,86.80
2018-09-27T10:06:32.303Z,84.10
2018-09-27T10:09:01.934Z,77.30
2018-09-27T10:11:31.510Z,73.00
2018-09-27T10:14:01.006Z,70.70
2018-09-27T10:16:30.557Z,76.90
2018-09-27T10:18:59.929Z,75.70
2018-09-27T10:21:29.871Z,75.30
2018-09-27T10:23:59.850Z,74.90
2018-09-27T10:26:29.339Z,74.40
2018-09-27T10:28:59.696Z,73.10
2018-09-27T10:31:29.063Z,74.30
2018-09-27T10:33:58.634Z,72.60
2018-09-27T10:36:28.125Z,75.20
2018-09-27T10:38:58.123Z,67.30
2018-09-27T10:41:27.531Z,65.70
2018-09-27T10:43:56.927Z,67.20
2018-09-27T10:46:26.297Z,67.80
2018-09-27T10:48:55.867Z,66.20
2018-09-27T10:51:25.204Z,68.20
2018-09-27T10:53:54.617Z,63.80
2018-09-27T10:56:24.139Z,70.30
2018-09-27T10:58:53.631Z,66.70
2018-09-27T11:01:23.041Z,63.10
2018-09-27T11:03:52.291Z,65.80
2018-09-27T11:06:21.640Z,62.80
2018-09-27T11:08:50.969Z,61.70
2018-09-27T11:11:20.362Z,60.70
2018-09-27T11:13:50.045Z,56.20
2018-09-27T11:16:19.767Z,57.70
2018-09-27T11:18:49.175Z,57.30
2018-09-27T11:21:18.563Z,57.20
2018-09-27T11:23:47.991Z,56.80
2018-09-27T11:26:17.785Z,55.30
2018-09-27T11:28:52.318Z,55.00
2018-09-27T11:31:26.747Z,53.60
2018-09-27T11:33:56.204Z,55.20
2018-09-27T11:36:25.312Z,54.50
2018-09-27T11:38:54.524Z,50.80
2018-09-27T11:41:23.994Z,51.30
2018-09-27T11:43:53.551Z,52.70
2018-09-27T11:46:22.836Z,50.50
2018-09-27T11:48:52.210Z,51.50
2018-09-27T11:51:21.646Z,51.40
2018-09-27T11:53:50.700Z,49.10
2018-09-27T11:56:20.243Z,51.40
2018-09-27T11:58:49.662Z,49.40
2018-09-27T12:01:18.918Z,47.20
2018-09-27T12:03:48.178Z,46.30
2018-09-27T12:06:17.797Z,51.00
2018-09-27T12:08:47.104Z,46.80
2018-09-27T12:11:16.821Z,49.90
2018-09-27T12:13:46.580Z,45.20
2018-09-27T12:16:16.428Z,46.60
2018-09-27T12:18:46.048Z,44.70
2018-09-27T12:21:15.294Z,44.20
2018-09-27T12:23:44.642Z,44.10
2018-09-27T12:26:14.118Z,42.60
2018-09-27T12:28:44.793Z,41.50
2018-09-27T12:31:14.558Z,36.40
2018-09-27T12:33:44.494Z,35.20
2018-09-27T12:36:13.898Z,34.60
2018-09-27T12:38:43.179Z,30.50
2018-09-27T12:41:12.319Z,27.30
2018-09-27T12:43:41.640Z,27.00
2018-09-27T12:46:11.728Z,24.60
2018-09-27T12:48:41.004Z,24.80
2018-09-27T12:51:10.514Z,24.60
2018-09-27T12:53:39.876Z,22.20
2018-09-27T12:56:09.178Z,21.30
2018-09-27T12:58:39.351Z,21.40
2018-09-27T13:01:08.815Z,22.90
2018-09-27T13:03:38.065Z,19.70
2018-09-27T13:06:07.641Z,19.80
2018-09-27T13:08:36.949Z,20.00
2018-09-27T13:11:06.343Z,21.30
2018-09-27T13:13:35.755Z,19.80
2018-09-27T13:16:05.164Z,21.40
2018-09-27T13:18:34.515Z,20.90
2018-09-27T13:21:03.843Z,21.20
2018-09-27T13:23:37.251Z,21.10
2018-09-27T13:26:06.881Z,19.60
2018-09-27T13:28:36.244Z,20.00
2018-09-27T13:31:05.765Z,20.50
2018-09-27T13:33:35.161Z,20.60
2018-09-27T13:36:04.293Z,21.00
2018-09-27T13:38:42.019Z,21.50
2018-09-27T13:41:11.551Z,21.40
2018-09-27T13:43:40.893Z,20.00
2018-09-27T13:49:00.850Z,19.20
2018-09-27T13:51:30.360Z,19.50
2018-09-27T13:54:00.012Z,20.00
2018-09-27T13:56:29.826Z,21.40
2018-09-27T13:58:58.934Z,21.10
2018-09-27T14:01:28.278Z,19.90
2018-09-27T14:03:57.696Z,19.30
2018-09-27T14:06:27.434Z,19.20
2018-09-27T14:08:57.638Z,19.10
2018-09-27T14:11:27.686Z,19.50
2018-09-27T14:13:56.962Z,20.40
2018-09-27T14:16:26.310Z,21.00
2018-09-27T14:18:55.436Z,23.00
2018-09-27T14:21:24.736Z,24.50
2018-09-27T14:23:57.756Z,23.50
2018-09-27T14:26:27.533Z,23.90
2018-09-27T14:28:57.049Z,22.70
2018-09-27T14:31:26.415Z,20.50
2018-09-27T14:34:05.061Z,24.00
2018-09-27T14:36:34.553Z,23.50
2018-09-27T14:39:05.547Z,24.10
2018-09-27T14:41:34.963Z,24.90
2018-09-27T14:44:04.496Z,23.20
2018-09-27T14:46:33.687Z,24.30
2018-09-27T14:49:02.817Z,24.20
2018-09-27T14:51:31.982Z,23.50
2018-09-27T14:54:07.585Z,23.60
2018-09-27T14:56:36.902Z,23.30
2018-09-27T14:59:08.346Z,23.60
2018-09-27T15:01:38.076Z,24.20
2018-09-27T15:04:07.856Z,24.10
2018-09-27T15:06:37.279Z,23.70
2018-09-27T15:09:08.969Z,23.20
2018-09-27T15:11:38.514Z,23.70
2018-09-27T15:14:07.918Z,23.50
2018-09-27T15:16:37.578Z,24.50
2018-09-27T15:19:07.532Z,24.70
2018-09-27T15:21:36.930Z,24.80
2018-09-27T15:24:06.165Z,24.80
2018-09-27T15:26:35.752Z,24.80
2018-09-27T15:29:04.992Z,25.80
2018-09-27T15:31:34.321Z,26.90
2018-09-27T15:34:03.631Z,27.10
2018-09-27T15:36:32.972Z,27.30
2018-09-27T15:39:02.472Z,28.30
2018-09-27T15:41:41.043Z,28.70
2018-09-27T15:44:10.344Z,29.20
2018-09-27T15:46:39.502Z,28.40
2018-09-27T15:49:08.673Z,29.10
2018-09-27T15:51:38.020Z,29.10
2018-09-27T15:54:07.264Z,29.70
2018-09-27T15:56:36.538Z,29.90
2018-09-27T15:59:05.851Z,30.90
2018-09-27T16:01:35.584Z,31.40
2018-09-27T16:04:04.943Z,31.80
2018-09-27T16:06:34.111Z,33.30
2018-09-27T16:09:03.902Z,34.80
2018-09-27T16:11:34.239Z,36.00
2018-09-27T16:14:03.716Z,36.40
2018-09-27T16:16:33.249Z,37.50
2018-09-27T16:19:02.384Z,37.20
2018-09-27T16:21:31.691Z,38.60
2018-09-27T16:24:01.501Z,39.60
2018-09-27T16:26:30.823Z,40.40
2018-09-27T16:29:00.180Z,41.80
2018-09-27T16:31:29.709Z,42.50
2018-09-27T16:33:58.992Z,44.10
2018-09-27T16:36:28.229Z,44.80
2018-09-27T16:38:58.848Z,44.70
2018-09-27T16:41:28.318Z,45.90
2018-09-27T16:43:57.729Z,46.90
2018-09-27T16:46:26.966Z,47.50
2018-09-27T16:48:56.579Z,48.30
2018-09-27T16:51:25.785Z,48.70
2018-09-27T16:53:56.110Z,49.90
2018-09-27T16:56:25.670Z,51.20
2018-09-27T16:58:54.994Z,50.40
2018-09-27T17:01:24.724Z,51.10
2018-09-27T17:03:54.181Z,52.50
2018-09-27T17:06:27.602Z,53.10
2018-09-27T17:08:56.877Z,54.10
2018-09-27T17:11:26.448Z,55.20
2018-09-27T17:13:55.691Z,56.00
2018-09-27T17:16:24.990Z,56.80
2018-09-27T17:18:57.916Z,57.20
2018-09-27T17:21:27.279Z,59.10
2018-09-27T17:23:56.403Z,60.40
2018-09-27T17:26:25.692Z,63.60
2018-09-27T17:28:54.910Z,70.20
2018-09-27T17:31:24.452Z,79.10
2018-09-27T17:33:53.699Z,84.50
2018-09-27T17:36:23.255Z,81.90
2018-09-27T17:38:52.794Z,89.80
2018-09-27T17:41:24.121Z,92.10
2018-09-27T17:43:53.482Z,90.10
2018-09-27T17:46:22.808Z,90.20
2018-09-27T17:48:52.215Z,91.50
2018-09-27T17:51:21.900Z,93.70
2018-09-27T17:53:51.463Z,94.70
2018-09-27T17:56:21.046Z,96.90
2018-09-27T17:58:50.310Z,97.60
2018-09-27T18:01:19.993Z,99.80
2018-09-27T18:03:49.668Z,99.20
2018-09-27T18:06:18.734Z,99.90
2018-09-27T18:08:48.096Z,99.90
2018-09-27T18:11:17.817Z,99.90
2018-09-27T18:13:47.825Z,99.90
2018-09-27T18:16:17.196Z,99.90
2018-09-27T18:18:46.228Z,99.90
2018-09-27T18:21:15.479Z,99.90
2018-09-27T18:23:44.470Z,99.90
2018-09-27T18:26:13.871Z,99.90
2018-09-27T18:28:42.992Z,99.90
2018-09-27T18:31:12.271Z,99.90
2018-09-27T18:33:41.400Z,99.90
2018-09-27T18:36:11.491Z,99.90
2018-09-27T18:38:40.594Z,99.90
2018-09-27T18:41:09.565Z,99.90
2018-09-27T18:43:47.383Z,99.90
2018-09-27T18:46:17.033Z,99.90
2018-09-27T18:48:46.559Z,99.90
2018-09-27T18:51:15.829Z,99.90
2018-09-27T18:53:46.408Z,99.90
2018-09-27T18:56:16.038Z,99.90
2018-09-27T18:58:46.184Z,99.90
2018-09-27T19:01:15.389Z,99.90
2018-09-27T19:03:44.388Z,99.90
2018-09-27T19:06:13.682Z,99.90
2018-09-27T19:08:43.035Z,99.90
2018-09-27T19:11:12.400Z,99.90
2018-09-27T19:13:41.889Z,99.90
2018-09-27T19:16:11.070Z,99.90
2018-09-27T19:18:40.802Z,99.90
2018-09-27T19:21:10.244Z,99.90
2018-09-27T19:23:39.776Z,99.90
2018-09-27T19:26:10.073Z,99.90
2018-09-27T19:28:39.310Z,99.90
2018-09-27T19:31:09.644Z,99.90
2018-09-27T19:33:39.319Z,99.90
2018-09-27T19:36:13.966Z,99.90
2018-09-27T19:38:43.132Z,99.90
2018-09-27T19:41:12.617Z,99.90
2018-09-27T19:43:41.795Z,99.90
2018-09-27T19:46:11.547Z,99.90
2018-09-27T19:48:41.021Z,99.90
2018-09-27T19:51:10.123Z,99.90
2018-09-27T19:53:40.019Z,99.90
2018-09-27T19:56:10.607Z,99.90
2018-09-27T19:58:39.913Z,99.90
2018-09-27T20:01:08.819Z,99.90
2018-09-27T20:03:38.357Z,99.90
2018-09-27T20:06:08.305Z,99.90
2018-09-27T20:08:37.685Z,99.90
2018-09-27T20:11:09.073Z,99.90
2018-09-27T20:13:38.586Z,99.90
2018-09-27T20:16:08.380Z,99.90
2018-09-27T20:18:38.420Z,99.90
2018-09-27T20:21:07.847Z,99.90
2018-09-27T20:23:37.355Z,99.90
2018-09-27T20:26:07.129Z,99.90
2018-09-27T20:28:36.536Z,99.90
2018-09-27T20:31:05.989Z,99.90
2018-09-27T20:33:36.010Z,99.90
2018-09-27T20:36:05.622Z,99.90
2018-09-27T20:38:35.188Z,99.90
2018-09-27T20:41:04.939Z,99.90
2018-09-27T20:43:40.273Z,99.90
2018-09-27T20:46:10.256Z,99.90
2018-09-27T20:48:39.866Z,99.90
2018-09-27T20:51:09.363Z,99.90
2018-09-27T20:53:39.005Z,99.90
2018-09-27T20:56:08.865Z,99.90
2018-09-27T20:58:38.606Z,99.90
2018-09-27T21:01:07.906Z,99.90
2018-09-27T21:03:37.699Z,99.90
2018-09-27T21:06:07.453Z,99.90
2018-09-27T21:08:37.567Z,99.90
2018-09-27T21:11:11.447Z,99.90
2018-09-27T21:13:40.808Z,99.90
2018-09-27T21:16:10.950Z,99.90
2018-09-27T21:18:40.460Z,99.90
2018-09-27T21:21:10.536Z,99.90
2018-09-27T21:23:41.120Z,99.90
2018-09-27T21:26:10.323Z,99.90
2018-09-27T21:28:39.811Z,99.90
2018-09-27T21:31:09.066Z,99.90
2018-09-27T21:33:38.411Z,99.90
2018-09-27T21:36:07.925Z,99.90
2018-09-27T21:38:37.092Z,99.90
2018-09-27T21:41:06.383Z,99.90
2018-09-27T21:43:36.527Z,99.90
2018-09-27T21:46:14.962Z,99.90
2018-09-27T21:48:44.544Z,99.90
2018-09-27T21:51:13.941Z,99.90
2018-09-27T21:53:43.572Z,99.90
2018-09-27T21:56:12.748Z,99.90
2018-09-27T21:58:42.223Z,99.90
2018-09-27T22:01:12.066Z,99.90
2018-09-27T22:03:41.170Z,99.90
2018-09-27T22:06:10.884Z,99.90
2018-09-27T22:08:40.810Z,99.90
2018-09-27T22:11:10.206Z,99.90
2018-09-27T22:13:39.401Z,99.90
2018-09-27T22:16:08.996Z,99.90
2018-09-27T22:18:38.396Z,99.90
2018-09-27T22:21:07.580Z,99.90
2018-09-27T22:23:37.027Z,99.90
2018-09-27T22:26:06.679Z,99.90
2018-09-27T22:28:36.467Z,99.90
2018-09-27T22:31:05.823Z,99.90
2018-09-27T22:33:35.326Z,99.90
2018-09-27T22:36:04.747Z,99.90
2018-09-27T22:38:34.026Z,99.90
2018-09-27T22:41:03.333Z,99.90
2018-09-27T22:43:32.699Z,99.90
2018-09-27T22:46:01.857Z,99.90
2018-09-27T22:48:31.123Z,99.90
2018-09-27T22:51:00.057Z,99.90
2018-09-27T22:53:29.291Z,99.90
2018-09-27T22:55:58.613Z,99.90
2018-09-27T22:58:27.710Z,99.90
2018-09-27T23:00:57.237Z,99.90
2018-09-27T23:03:27.040Z,99.90
2018-09-27T23:05:56.452Z,99.90
2018-09-27T23:08:25.861Z,99.90
2018-09-27T23:10:55.240Z,99.90
2018-09-27T23:13:24.558Z,99.90
2018-09-27T23:15:54.469Z,99.90
2018-09-27T23:18:23.973Z,99.90
2018-09-27T23:20:53.885Z,99.90
2018-09-27T23:23:23.099Z,99.90
2018-09-27T23:25:52.247Z,99.90
2018-09-27T23:28:21.316Z,99.90
2018-09-27T23:30:50.697Z,99.90
2018-09-27T23:33:20.317Z,99.90
2018-09-27T23:35:49.603Z,99.90
2018-09-27T23:38:19.140Z,99.90
2018-09-27T23:40:49.114Z,99.90
2018-09-27T23:43:18.504Z,99.90
2018-09-27T23:45:47.949Z,99.90
2018-09-27T23:48:17.101Z,99.90
2018-09-27T23:50:46.290Z,99.90
2018-09-27T23:53:16.419Z,99.90
2018-09-27T23:55:52.695Z,99.90
2018-09-27T23:58:21.903Z,99.90
